createdAt,value
2018-11-27T00:00:08.609Z,3.69
2018-11-27T00:01:08.854Z,3.65
2018-11-27T00:02:08.928Z,3.69
2018-11-27T00:03:09.124Z,3.50
2018-11-27T00:04:09.316Z,3.62
2018-11-27T00:05:09.505Z,3.65
2018-11-27T00:06:09.744Z,3.70
2018-11-27T00:07:09.815Z,3.66
2018-11-27T00:08:09.983Z,3.60
2018-11-27T00:09:10.179Z,3.69
2018-11-27T00:10:10.353Z,3.70
2018-11-27T00:11:10.535Z,3.70
2018-11-27T00:12:10.713Z,3.60
2018-11-27T00:13:10.902Z,3.70
2018-11-27T00:14:11.077Z,3.57
2018-11-27T00:15:11.264Z,3.62
2018-11-27T00:16:11.447Z,3.65
2018-11-27T00:17:11.626Z,3.58
2018-11-27T00:18:11.810Z,3.60
2018-11-27T00:19:11.989Z,3.68
2018-11-27T00:20:12.163Z,3.60
2018-11-27T00:21:12.347Z,3.50
2018-11-27T00:22:12.530Z,3.54
2018-11-27T00:23:12.712Z,3.45
2018-11-27T00:24:12.893Z,3.52
2018-11-27T00:25:13.076Z,3.48
2018-11-27T00:26:13.266Z,3.50
2018-11-27T00:27:13.442Z,3.48
2018-11-27T00:28:13.620Z,3.47
2018-11-27T00:29:13.794Z,3.55
2018-11-27T00:30:13.986Z,3.54
2018-11-27T00:31:14.155Z,3.62
2018-11-27T00:32:14.341Z,3.55
2018-11-27T00:33:14.516Z,3.55
2018-11-27T00:34:14.720Z,3.40
2018-11-27T00:35:14.888Z,3.33
2018-11-27T00:36:15.066Z,3.36
2018-11-27T00:37:15.251Z,3.40
2018-11-27T00:38:15.430Z,3.35
2018-11-27T00:39:15.606Z,3.33
2018-11-27T00:40:15.790Z,3.48
2018-11-27T00:41:15.965Z,3.47
2018-11-27T00:42:16.143Z,3.48
2018-11-27T00:43:16.333Z,3.33
2018-11-27T00:44:16.499Z,3.31
2018-11-27T00:45:16.688Z,3.40
2018-11-27T00:46:16.872Z,3.45
2018-11-27T00:47:17.047Z,3.48
2018-11-27T00:48:17.230Z,3.52
2018-11-27T00:49:17.403Z,3.48
2018-11-27T00:50:17.586Z,3.39
2018-11-27T00:51:17.756Z,3.48
2018-11-27T00:52:17.950Z,3.58
2018-11-27T00:53:18.133Z,3.48
2018-11-27T00:54:18.319Z,3.48
2018-11-27T00:55:18.497Z,3.57
2018-11-27T00:56:18.677Z,3.47
2018-11-27T00:57:18.851Z,3.48
2018-11-27T00:58:19.037Z,3.39
2018-11-27T00:59:19.221Z,3.29
2018-11-27T01:00:19.400Z,3.45
2018-11-27T01:01:19.583Z,3.43
2018-11-27T01:02:19.762Z,3.47
2018-11-27T01:03:19.942Z,3.43
2018-11-27T01:04:20.127Z,3.47
2018-11-27T01:05:20.300Z,3.47
2018-11-27T01:06:20.483Z,3.43
2018-11-27T01:07:20.663Z,3.50
2018-11-27T01:08:20.841Z,3.42
2018-11-27T01:09:21.023Z,3.40
2018-11-27T01:10:21.202Z,3.35
2018-11-27T01:11:21.379Z,3.43
2018-11-27T01:12:21.563Z,3.43
2018-11-27T01:13:21.747Z,3.42
2018-11-27T01:14:21.925Z,3.43
2018-11-27T01:15:22.106Z,3.35
2018-11-27T01:16:22.289Z,3.33
2018-11-27T01:17:22.465Z,3.48
2018-11-27T01:18:22.655Z,3.47
2018-11-27T01:19:22.828Z,3.47
2018-11-27T01:20:23.010Z,3.33
2018-11-27T01:21:23.190Z,3.43
2018-11-27T01:22:23.370Z,3.47
2018-11-27T01:23:23.563Z,3.42
2018-11-27T01:24:23.736Z,3.47
2018-11-27T01:25:23.915Z,3.50
2018-11-27T01:26:24.092Z,3.43
2018-11-27T01:27:24.276Z,3.42
2018-11-27T01:28:24.456Z,3.51
2018-11-27T01:29:24.636Z,3.57
2018-11-27T01:30:24.817Z,3.50
2018-11-27T01:31:24.999Z,3.43
2018-11-27T01:32:25.173Z,3.51
2018-11-27T01:33:25.356Z,3.60
2018-11-27T01:34:25.525Z,3.45
2018-11-27T01:35:25.714Z,3.50
2018-11-27T01:36:25.893Z,3.42
2018-11-27T01:37:26.067Z,3.54
2018-11-27T01:38:26.250Z,3.29
2018-11-27T01:39:26.431Z,3.39
2018-11-27T01:40:26.602Z,3.39
2018-11-27T01:41:26.790Z,3.47
2018-11-27T01:42:26.967Z,3.40
2018-11-27T01:43:27.792Z,3.48
2018-11-27T01:44:27.324Z,3.48
2018-11-27T01:45:27.499Z,3.43
2018-11-27T01:46:27.686Z,3.51
2018-11-27T01:47:27.866Z,3.50
2018-11-27T01:48:28.051Z,3.45
2018-11-27T01:49:28.234Z,3.54
2018-11-27T01:50:28.414Z,3.54
2018-11-27T01:51:28.601Z,3.45
2018-11-27T01:52:28.825Z,3.55
2018-11-27T01:53:28.960Z,3.57
2018-11-27T01:54:29.140Z,3.43
2018-11-27T01:55:29.322Z,3.42
2018-11-27T01:56:29.508Z,3.57
2018-11-27T01:57:29.691Z,3.48
2018-11-27T01:58:29.871Z,3.45
2018-11-27T01:59:30.056Z,3.48
2018-11-27T02:00:30.225Z,3.43
2018-11-27T02:01:30.405Z,3.43
2018-11-27T02:02:30.581Z,3.45
2018-11-27T02:03:30.760Z,3.35
2018-11-27T02:04:30.948Z,3.43
2018-11-27T02:05:31.132Z,3.36
2018-11-27T02:06:31.303Z,3.32
2018-11-27T02:07:31.480Z,3.52
2018-11-27T02:08:31.661Z,3.50
2018-11-27T02:09:31.845Z,3.47
2018-11-27T02:10:32.020Z,3.32
2018-11-27T02:11:32.212Z,3.48
2018-11-27T02:12:32.391Z,3.40
2018-11-27T02:13:32.570Z,3.42
2018-11-27T02:14:32.749Z,3.31
2018-11-27T02:15:32.929Z,3.47
2018-11-27T02:16:33.110Z,3.43
2018-11-27T02:17:33.291Z,3.36
2018-11-27T02:18:33.469Z,3.32
2018-11-27T02:19:33.647Z,3.47
2018-11-27T02:20:33.831Z,3.45
2018-11-27T02:21:34.010Z,3.36
2018-11-27T02:22:34.238Z,3.35
2018-11-27T02:23:34.384Z,3.35
2018-11-27T02:24:34.560Z,3.45
2018-11-27T02:25:34.730Z,3.36
2018-11-27T02:26:34.924Z,3.33
2018-11-27T02:27:35.105Z,3.33
2018-11-27T02:28:35.293Z,3.36
2018-11-27T02:29:35.470Z,3.42
2018-11-27T02:30:35.645Z,3.28
2018-11-27T02:31:35.826Z,3.32
2018-11-27T02:32:36.003Z,3.31
2018-11-27T02:33:36.188Z,3.35
2018-11-27T02:34:36.368Z,3.39
2018-11-27T02:35:36.549Z,3.43
2018-11-27T02:36:36.743Z,3.36
2018-11-27T02:37:36.928Z,3.32
2018-11-27T02:38:37.103Z,3.43
2018-11-27T02:39:37.280Z,3.36
2018-11-27T02:40:37.471Z,3.51
2018-11-27T02:41:37.640Z,3.47
2018-11-27T02:42:37.827Z,3.54
2018-11-27T02:43:38.010Z,3.55
2018-11-27T02:44:38.214Z,3.40
2018-11-27T02:45:38.392Z,3.47
2018-11-27T02:46:38.561Z,3.47
2018-11-27T02:47:38.737Z,3.61
2018-11-27T02:48:38.923Z,3.58
2018-11-27T02:49:39.098Z,3.28
2018-11-27T02:50:39.280Z,3.35
2018-11-27T02:51:39.451Z,3.31
2018-11-27T02:52:39.624Z,3.35
2018-11-27T02:53:39.808Z,3.31
2018-11-27T02:54:39.989Z,3.31
2018-11-27T02:55:40.169Z,3.40
2018-11-27T02:56:40.349Z,3.32
2018-11-27T02:57:40.532Z,3.39
2018-11-27T02:58:40.707Z,3.48
2018-11-27T02:59:40.896Z,3.40
2018-11-27T03:00:41.081Z,3.33
2018-11-27T03:01:41.258Z,3.36
2018-11-27T03:02:41.439Z,3.47
2018-11-27T03:03:41.617Z,3.40
2018-11-27T03:04:41.811Z,3.45
2018-11-27T03:05:41.985Z,3.40
2018-11-27T03:06:42.172Z,3.47
2018-11-27T03:07:42.351Z,3.32
2018-11-27T03:08:42.529Z,3.39
2018-11-27T03:09:42.709Z,3.35
2018-11-27T03:10:42.893Z,3.47
2018-11-27T03:11:43.070Z,3.43
2018-11-27T03:12:43.252Z,3.45
2018-11-27T03:13:43.434Z,3.36
2018-11-27T03:14:43.611Z,3.36
2018-11-27T03:15:43.791Z,3.39
2018-11-27T03:16:43.979Z,3.43
2018-11-27T03:17:44.159Z,3.48
2018-11-27T03:18:44.349Z,3.36
2018-11-27T03:19:44.517Z,3.36
2018-11-27T03:20:44.708Z,3.36
2018-11-27T03:21:44.884Z,3.40
2018-11-27T03:22:45.064Z,3.39
2018-11-27T03:23:45.245Z,3.47
2018-11-27T03:24:45.421Z,3.45
2018-11-27T03:25:45.607Z,3.47
2018-11-27T03:26:45.780Z,3.40
2018-11-27T03:27:45.967Z,3.45
2018-11-27T03:28:46.151Z,3.26
2018-11-27T03:29:46.345Z,3.39
2018-11-27T03:30:46.511Z,3.39
2018-11-27T03:31:46.786Z,3.24
2018-11-27T03:32:46.871Z,3.35
2018-11-27T03:33:47.052Z,3.47
2018-11-27T03:34:47.234Z,3.40
2018-11-27T03:35:47.419Z,3.45
2018-11-27T03:36:47.593Z,3.40
2018-11-27T03:37:47.812Z,3.45
2018-11-27T03:38:47.952Z,3.43
2018-11-27T03:39:48.133Z,3.36
2018-11-27T03:40:48.313Z,3.45
2018-11-27T03:41:48.553Z,3.33
2018-11-27T03:42:48.699Z,3.47
2018-11-27T03:43:48.882Z,3.40
2018-11-27T03:44:49.074Z,3.48
2018-11-27T03:45:49.246Z,3.39
2018-11-27T03:46:49.424Z,3.40
2018-11-27T03:47:49.602Z,3.48
2018-11-27T03:48:49.786Z,3.42
2018-11-27T03:49:49.963Z,3.50
2018-11-27T03:50:50.138Z,3.51
2018-11-27T03:51:50.324Z,3.47
2018-11-27T03:52:50.508Z,3.36
2018-11-27T03:53:50.688Z,3.43
2018-11-27T03:54:50.870Z,3.33
2018-11-27T03:55:51.041Z,3.36
2018-11-27T03:56:51.224Z,3.32
2018-11-27T03:57:51.403Z,3.24
2018-11-27T03:58:51.581Z,3.26
2018-11-27T03:59:51.766Z,3.36
2018-11-27T04:00:51.949Z,3.35
2018-11-27T04:01:52.136Z,3.31
2018-11-27T04:02:52.317Z,3.40
2018-11-27T04:03:52.499Z,3.40
2018-11-27T04:04:52.688Z,3.36
2018-11-27T04:05:52.863Z,3.31
2018-11-27T04:06:53.039Z,3.32
2018-11-27T04:07:53.226Z,3.36
2018-11-27T04:08:53.402Z,3.33
2018-11-27T04:09:53.582Z,3.35
2018-11-27T04:10:53.763Z,3.32
2018-11-27T04:11:53.943Z,3.33
2018-11-27T04:12:54.125Z,3.39
2018-11-27T04:13:54.301Z,3.29
2018-11-27T04:14:54.483Z,3.33
2018-11-27T04:15:54.665Z,3.36
2018-11-27T04:16:54.842Z,3.29
2018-11-27T04:17:55.024Z,3.28
2018-11-27T04:18:55.201Z,3.33
2018-11-27T04:19:55.381Z,3.28
2018-11-27T04:20:55.562Z,3.17
2018-11-27T04:21:55.754Z,3.23
2018-11-27T04:22:55.950Z,3.33
2018-11-27T04:23:56.113Z,3.33
2018-11-27T04:24:56.294Z,3.23
2018-11-27T04:25:56.474Z,3.28
2018-11-27T04:26:56.652Z,3.32
2018-11-27T04:27:56.846Z,3.32
2018-11-27T04:28:57.011Z,3.32
2018-11-27T04:29:57.200Z,3.26
2018-11-27T04:30:57.380Z,3.28
2018-11-27T04:31:57.555Z,3.28
2018-11-27T04:32:57.751Z,3.31
2018-11-27T04:33:57.926Z,3.17
2018-11-27T04:34:58.110Z,3.23
2018-11-27T04:35:58.292Z,3.21
2018-11-27T04:36:58.474Z,3.17
2018-11-27T04:37:59.568Z,3.24
2018-11-27T04:38:58.837Z,3.23
2018-11-27T04:39:59.011Z,3.21
2018-11-27T04:40:59.189Z,3.23
2018-11-27T04:41:59.370Z,3.14
2018-11-27T04:42:59.552Z,3.18
2018-11-27T04:43:59.732Z,3.26
2018-11-27T04:44:59.907Z,3.18
2018-11-27T04:46:00.093Z,3.28
2018-11-27T04:47:00.277Z,3.14
2018-11-27T04:48:00.452Z,3.20
2018-11-27T04:49:00.625Z,3.18
2018-11-27T04:50:00.801Z,3.13
2018-11-27T04:51:00.984Z,3.24
2018-11-27T04:52:01.159Z,3.15
2018-11-27T04:53:01.340Z,3.14
2018-11-27T04:54:01.522Z,3.11
2018-11-27T04:55:01.704Z,3.14
2018-11-27T04:56:01.910Z,3.05
2018-11-27T04:57:02.073Z,3.05
2018-11-27T04:58:02.258Z,3.08
2018-11-27T04:59:02.433Z,3.05
2018-11-27T05:00:02.615Z,3.14
2018-11-27T05:01:02.796Z,3.15
2018-11-27T05:02:02.971Z,3.06
2018-11-27T05:03:03.158Z,3.17
2018-11-27T05:04:03.335Z,3.15
2018-11-27T05:05:03.512Z,3.20
2018-11-27T05:06:03.694Z,3.20
2018-11-27T05:07:03.891Z,3.13
2018-11-27T05:08:04.068Z,3.08
2018-11-27T05:09:04.246Z,3.20
2018-11-27T05:10:04.430Z,3.15
2018-11-27T05:11:04.611Z,3.18
2018-11-27T05:12:04.788Z,3.02
2018-11-27T05:13:04.961Z,3.11
2018-11-27T05:14:05.148Z,3.11
2018-11-27T05:15:05.327Z,3.02
2018-11-27T05:16:05.496Z,3.10
2018-11-27T05:17:05.679Z,3.08
2018-11-27T05:18:05.858Z,3.08
2018-11-27T05:19:06.039Z,3.08
2018-11-27T05:20:06.217Z,2.99
2018-11-27T05:21:06.399Z,3.03
2018-11-27T05:22:06.586Z,3.14
2018-11-27T05:23:06.752Z,3.23
2018-11-27T05:24:06.934Z,3.03
2018-11-27T05:25:07.125Z,3.13
2018-11-27T05:26:07.303Z,3.08
2018-11-27T05:27:07.482Z,3.06
2018-11-27T05:28:07.655Z,3.02
2018-11-27T05:29:07.832Z,3.02
2018-11-27T05:30:08.015Z,3.14
2018-11-27T05:31:08.194Z,3.18
2018-11-27T05:32:08.373Z,3.15
2018-11-27T05:33:08.557Z,3.14
2018-11-27T05:34:08.733Z,3.08
2018-11-27T05:35:08.919Z,3.18
2018-11-27T05:36:09.098Z,3.05
2018-11-27T05:37:09.273Z,3.08
2018-11-27T05:38:09.449Z,3.06
2018-11-27T05:39:09.634Z,3.15
2018-11-27T05:40:09.819Z,3.15
2018-11-27T05:41:09.997Z,3.06
2018-11-27T05:42:10.174Z,3.03
2018-11-27T05:43:10.358Z,3.05
2018-11-27T05:44:10.538Z,3.14
2018-11-27T05:45:10.713Z,3.13
2018-11-27T05:46:10.901Z,3.10
2018-11-27T05:47:11.083Z,2.96
2018-11-27T05:48:11.270Z,3.06
2018-11-27T05:49:11.460Z,2.99
2018-11-27T05:50:11.645Z,3.11
2018-11-27T05:51:11.825Z,2.93
2018-11-27T05:52:12.026Z,3.03
2018-11-27T05:53:12.178Z,2.99
2018-11-27T05:54:12.358Z,3.02
2018-11-27T05:55:12.544Z,3.10
2018-11-27T05:56:12.726Z,3.10
2018-11-27T05:57:12.907Z,3.00
2018-11-27T05:58:13.154Z,2.90
2018-11-27T05:59:13.290Z,2.92
2018-11-27T06:00:13.472Z,2.89
2018-11-27T06:01:13.649Z,2.90
2018-11-27T06:02:13.831Z,2.93
2018-11-27T06:03:14.004Z,2.92
2018-11-27T06:04:14.187Z,2.87
2018-11-27T06:05:14.395Z,2.92
2018-11-27T06:06:14.596Z,2.82
2018-11-27T06:07:14.778Z,2.85
2018-11-27T06:08:14.951Z,2.79
2018-11-27T06:09:15.133Z,2.85
2018-11-27T06:10:15.312Z,2.87
2018-11-27T06:11:15.498Z,2.87
2018-11-27T06:12:15.674Z,2.89
2018-11-27T06:13:15.857Z,2.89
2018-11-27T06:14:16.038Z,2.87
2018-11-27T06:15:16.217Z,2.90
2018-11-27T06:16:16.395Z,2.96
2018-11-27T06:17:16.574Z,2.85
2018-11-27T06:18:16.756Z,2.87
2018-11-27T06:19:16.940Z,2.85
2018-11-27T06:20:17.119Z,2.96
2018-11-27T06:21:17.295Z,2.85
2018-11-27T06:22:17.475Z,2.78
2018-11-27T06:23:17.653Z,2.81
2018-11-27T06:24:17.834Z,2.69
2018-11-27T06:25:18.009Z,2.69
2018-11-27T06:26:18.194Z,2.79
2018-11-27T06:27:18.377Z,2.78
2018-11-27T06:28:18.548Z,2.81
2018-11-27T06:29:18.744Z,2.82
2018-11-27T06:30:18.913Z,2.92
2018-11-27T06:31:19.091Z,2.84
2018-11-27T06:32:21.402Z,2.78
2018-11-27T06:33:19.469Z,2.78
2018-11-27T06:34:19.655Z,2.81
2018-11-27T06:35:19.839Z,2.77
2018-11-27T06:36:20.016Z,2.82
2018-11-27T06:37:20.201Z,2.69
2018-11-27T06:38:20.377Z,2.82
2018-11-27T06:39:20.565Z,2.63
2018-11-27T06:40:20.751Z,2.71
2018-11-27T06:41:20.928Z,2.64
2018-11-27T06:42:21.111Z,2.69
2018-11-27T06:43:21.291Z,2.74
2018-11-27T06:44:21.475Z,2.71
2018-11-27T06:45:21.647Z,2.66
2018-11-27T06:46:21.843Z,2.66
2018-11-27T06:47:22.026Z,2.66
2018-11-27T06:48:22.202Z,2.66
2018-11-27T06:49:22.377Z,2.72
2018-11-27T06:50:22.552Z,2.69
2018-11-27T06:51:22.739Z,2.63
2018-11-27T06:52:22.919Z,2.66
2018-11-27T06:53:23.094Z,2.64
2018-11-27T06:54:23.289Z,2.72
2018-11-27T06:55:23.458Z,2.57
2018-11-27T06:56:23.633Z,2.57
2018-11-27T06:57:23.817Z,2.52
2018-11-27T06:58:23.995Z,2.54
2018-11-27T06:59:24.179Z,2.57
2018-11-27T07:00:24.355Z,2.56
2018-11-27T07:01:24.541Z,2.56
2018-11-27T07:02:24.714Z,2.53
2018-11-27T07:03:24.947Z,2.48
2018-11-27T07:04:25.080Z,2.54
2018-11-27T07:05:25.257Z,2.54
2018-11-27T07:06:25.438Z,2.52
2018-11-27T07:07:25.613Z,2.46
2018-11-27T07:08:25.794Z,2.52
2018-11-27T07:09:25.973Z,2.48
2018-11-27T07:10:26.147Z,2.38
2018-11-27T07:11:26.325Z,2.36
2018-11-27T07:12:26.506Z,2.34
2018-11-27T07:13:26.688Z,2.39
2018-11-27T07:14:26.870Z,2.31
2018-11-27T07:15:27.052Z,2.42
2018-11-27T07:16:27.229Z,2.38
2018-11-27T07:17:27.410Z,2.43
2018-11-27T07:18:27.580Z,2.38
2018-11-27T07:19:27.768Z,2.34
2018-11-27T07:20:27.947Z,2.38
2018-11-27T07:21:28.129Z,2.30
2018-11-27T07:22:28.307Z,2.35
2018-11-27T07:23:28.502Z,2.36
2018-11-27T07:24:28.680Z,2.45
2018-11-27T07:25:28.858Z,2.35
2018-11-27T07:26:29.032Z,2.45
2018-11-27T07:27:29.221Z,2.52
2018-11-27T07:28:29.397Z,2.45
2018-11-27T07:29:29.586Z,2.53
2018-11-27T07:30:29.762Z,2.35
2018-11-27T07:31:29.940Z,2.39
2018-11-27T07:32:30.125Z,2.52
2018-11-27T07:33:30.301Z,2.45
2018-11-27T07:34:30.525Z,2.46
2018-11-27T07:35:30.657Z,2.42
2018-11-27T07:36:30.837Z,2.41
2018-11-27T07:37:31.024Z,2.49
2018-11-27T07:38:31.198Z,2.49
2018-11-27T07:39:31.378Z,2.49
2018-11-27T07:40:31.555Z,2.49
2018-11-27T07:41:31.740Z,2.39
2018-11-27T07:42:31.926Z,2.38
2018-11-27T07:43:32.103Z,2.52
2018-11-27T07:44:32.292Z,2.48
2018-11-27T07:45:32.467Z,2.56
2018-11-27T07:46:32.648Z,2.54
2018-11-27T07:47:32.829Z,2.45
2018-11-27T07:48:33.010Z,2.49
2018-11-27T07:49:33.198Z,2.60
2018-11-27T07:50:33.383Z,2.48
2018-11-27T07:51:33.569Z,2.53
2018-11-27T07:52:33.742Z,2.53
2018-11-27T07:53:33.919Z,2.63
2018-11-27T07:54:34.110Z,2.59
2018-11-27T07:55:34.292Z,2.60
2018-11-27T07:56:34.475Z,2.54
2018-11-27T07:57:34.646Z,2.59
2018-11-27T07:58:34.825Z,2.59
2018-11-27T07:59:35.010Z,2.61
2018-11-27T08:00:35.191Z,2.52
2018-11-27T08:01:35.369Z,2.57
2018-11-27T08:02:35.551Z,2.64
2018-11-27T08:03:35.728Z,2.59
2018-11-27T08:04:35.919Z,2.66
2018-11-27T08:05:36.100Z,2.61
2018-11-27T08:06:36.287Z,2.66
2018-11-27T08:07:36.464Z,2.64
2018-11-27T08:08:36.644Z,2.66
2018-11-27T08:09:36.823Z,2.64
2018-11-27T08:10:37.001Z,2.67
2018-11-27T08:11:37.183Z,2.69
2018-11-27T08:12:37.358Z,2.75
2018-11-27T08:13:37.551Z,2.57
2018-11-27T08:14:37.723Z,2.49
2018-11-27T08:15:37.907Z,2.59
2018-11-27T08:16:38.088Z,2.61
2018-11-27T08:17:38.263Z,2.52
2018-11-27T08:18:38.444Z,2.53
2018-11-27T08:19:38.634Z,2.54
2018-11-27T08:20:38.815Z,2.54
2018-11-27T08:21:38.994Z,2.54
2018-11-27T08:22:39.177Z,2.64
2018-11-27T08:23:39.360Z,2.59
2018-11-27T08:24:39.535Z,2.61
2018-11-27T08:25:39.717Z,2.67
2018-11-27T08:26:39.902Z,2.71
2018-11-27T08:27:40.088Z,2.67
2018-11-27T08:28:40.279Z,2.66
2018-11-27T08:29:40.450Z,2.69
2018-11-27T08:30:40.627Z,2.60
2018-11-27T08:31:40.805Z,2.66
2018-11-27T08:32:40.988Z,2.79
2018-11-27T08:33:41.165Z,2.69
2018-11-27T08:34:41.343Z,2.75
2018-11-27T08:35:41.524Z,2.63
2018-11-27T08:36:41.709Z,2.71
2018-11-27T08:37:41.889Z,2.66
2018-11-27T08:38:42.064Z,2.74
2018-11-27T08:39:42.245Z,2.77
2018-11-27T08:40:42.425Z,2.71
2018-11-27T08:41:42.609Z,2.66
2018-11-27T08:42:42.786Z,2.67
2018-11-27T08:43:43.021Z,2.66
2018-11-27T08:44:43.147Z,2.67
2018-11-27T08:45:43.325Z,2.64
2018-11-27T08:46:43.517Z,2.67
2018-11-27T08:47:43.703Z,2.74
2018-11-27T08:48:43.880Z,2.84
2018-11-27T08:49:44.063Z,2.90
2018-11-27T08:50:44.242Z,2.66
2018-11-27T08:51:44.417Z,2.78
2018-11-27T08:52:46.857Z,2.87
2018-11-27T08:53:44.777Z,2.82
2018-11-27T08:54:44.971Z,2.85
2018-11-27T08:55:45.127Z,2.79
2018-11-27T08:56:45.307Z,2.93
2018-11-27T08:57:45.489Z,2.85
2018-11-27T08:58:45.669Z,2.79
2018-11-27T08:59:45.852Z,2.84
2018-11-27T09:00:46.046Z,2.84
2018-11-27T09:01:46.220Z,2.69
2018-11-27T09:02:46.402Z,2.71
2018-11-27T09:03:46.612Z,2.60
2018-11-27T09:04:46.764Z,2.79
2018-11-27T09:05:46.943Z,2.69
2018-11-27T09:06:47.131Z,2.74
2018-11-27T09:07:47.313Z,2.85
2018-11-27T09:08:47.489Z,2.81
2018-11-27T09:09:47.678Z,2.77
2018-11-27T09:10:47.867Z,2.84
2018-11-27T09:11:48.048Z,2.82
2018-11-27T09:12:48.231Z,2.82
2018-11-27T09:13:48.417Z,2.77
2018-11-27T09:14:48.594Z,2.78
2018-11-27T09:15:48.777Z,2.81
2018-11-27T09:16:48.961Z,2.85
2018-11-27T09:17:49.134Z,2.90
2018-11-27T09:18:49.317Z,2.75
2018-11-27T09:19:49.503Z,2.89
2018-11-27T09:20:49.679Z,2.77
2018-11-27T09:21:49.853Z,2.81
2018-11-27T09:22:50.030Z,2.87
2018-11-27T09:23:50.214Z,2.84
2018-11-27T09:24:50.391Z,2.81
2018-11-27T09:25:50.583Z,2.81
2018-11-27T09:26:50.755Z,2.82
2018-11-27T09:27:50.935Z,2.81
2018-11-27T09:28:51.121Z,2.90
2018-11-27T09:29:51.293Z,2.97
2018-11-27T09:30:51.477Z,2.77
2018-11-27T09:31:51.647Z,2.77
2018-11-27T09:32:51.829Z,2.90
2018-11-27T09:33:52.007Z,2.93
2018-11-27T09:34:52.183Z,3.00
2018-11-27T09:35:52.364Z,2.90
2018-11-27T09:36:52.546Z,2.90
2018-11-27T09:37:52.726Z,2.99
2018-11-27T09:38:52.910Z,2.97
2018-11-27T09:39:53.085Z,3.03
2018-11-27T09:40:53.264Z,3.05
2018-11-27T09:41:53.442Z,3.03
2018-11-27T09:42:53.627Z,3.10
2018-11-27T09:43:53.806Z,3.06
2018-11-27T09:44:53.992Z,3.08
2018-11-27T09:45:54.169Z,3.23
2018-11-27T09:46:54.350Z,3.13
2018-11-27T09:47:54.540Z,3.18
2018-11-27T09:48:54.715Z,3.10
2018-11-27T09:49:54.904Z,3.14
2018-11-27T09:50:55.087Z,3.10
2018-11-27T09:51:55.262Z,3.21
2018-11-27T09:52:55.445Z,3.17
2018-11-27T09:53:55.620Z,3.23
2018-11-27T09:54:55.802Z,3.14
2018-11-27T09:55:55.994Z,3.03
2018-11-27T09:56:56.163Z,3.14
2018-11-27T09:57:59.133Z,3.28
2018-11-27T09:58:56.533Z,3.32
2018-11-27T09:59:56.714Z,3.20
2018-11-27T10:00:56.898Z,3.28
2018-11-27T10:01:57.074Z,3.39
2018-11-27T10:02:57.263Z,3.42
2018-11-27T10:03:57.436Z,3.39
2018-11-27T10:04:57.617Z,3.39
2018-11-27T10:05:57.797Z,3.40
2018-11-27T10:06:57.986Z,3.42
2018-11-27T10:07:58.170Z,3.45
2018-11-27T10:08:58.364Z,3.51
2018-11-27T10:09:58.532Z,3.29
2018-11-27T10:10:58.708Z,3.31
2018-11-27T10:11:58.893Z,3.26
2018-11-27T10:12:59.070Z,3.42
2018-11-27T10:13:59.253Z,3.57
2018-11-27T10:14:59.437Z,3.51
2018-11-27T10:15:59.613Z,3.65
2018-11-27T10:16:59.806Z,3.42
2018-11-27T10:17:59.988Z,3.54
2018-11-27T10:19:00.169Z,3.58
2018-11-27T10:20:00.358Z,3.50
2018-11-27T10:21:00.529Z,3.68
2018-11-27T10:22:00.712Z,3.51
2018-11-27T10:23:00.889Z,3.40
2018-11-27T10:24:01.076Z,3.31
2018-11-27T10:25:01.316Z,3.45
2018-11-27T10:26:01.433Z,3.54
2018-11-27T10:27:01.616Z,3.57
2018-11-27T10:28:01.795Z,3.75
2018-11-27T10:29:01.973Z,3.57
2018-11-27T10:30:02.157Z,3.78
2018-11-27T10:31:02.337Z,3.83
2018-11-27T10:32:02.518Z,4.00
2018-11-27T10:33:02.699Z,4.04
2018-11-27T10:34:02.876Z,4.09
2018-11-27T10:35:03.054Z,4.12
2018-11-27T10:36:03.237Z,4.23
2018-11-27T10:37:03.431Z,4.15
2018-11-27T10:38:03.608Z,4.18
2018-11-27T10:39:03.793Z,4.00
2018-11-27T10:40:03.965Z,4.15
2018-11-27T10:41:04.151Z,4.29
2018-11-27T10:42:04.336Z,4.16
2018-11-27T10:43:04.517Z,4.12
2018-11-27T10:44:04.699Z,4.26
2018-11-27T10:45:04.879Z,4.41
2018-11-27T10:46:05.053Z,4.27
2018-11-27T10:47:05.245Z,4.42
2018-11-27T10:48:05.414Z,4.24
2018-11-27T10:49:05.612Z,4.12
2018-11-27T10:50:05.791Z,4.20
2018-11-27T10:51:05.974Z,4.50
2018-11-27T10:52:06.154Z,4.44
2018-11-27T10:53:06.338Z,4.44
2018-11-27T10:54:06.516Z,4.51
2018-11-27T10:55:06.700Z,4.29
2018-11-27T10:56:06.899Z,4.51
2018-11-27T10:57:07.082Z,4.20
2018-11-27T10:58:07.267Z,4.32
2018-11-27T10:59:07.440Z,4.29
2018-11-27T11:00:07.624Z,4.26
2018-11-27T11:01:07.808Z,4.15
2018-11-27T11:02:07.997Z,4.29
2018-11-27T11:03:08.177Z,4.15
2018-11-27T11:04:08.358Z,4.11
2018-11-27T11:05:08.549Z,4.14
2018-11-27T11:06:08.735Z,4.05
2018-11-27T11:07:08.915Z,4.11
2018-11-27T11:08:09.100Z,4.12
2018-11-27T11:09:09.279Z,4.09
2018-11-27T11:10:09.462Z,4.24
2018-11-27T11:11:09.642Z,4.14
2018-11-27T11:12:09.821Z,4.18
2018-11-27T11:13:10.012Z,4.26
2018-11-27T11:14:10.192Z,4.36
2018-11-27T11:15:10.382Z,4.32
2018-11-27T11:16:10.561Z,4.33
2018-11-27T11:17:10.739Z,4.47
2018-11-27T11:18:10.926Z,4.60
2018-11-27T11:19:11.109Z,4.52
2018-11-27T11:20:11.290Z,4.47
2018-11-27T11:21:11.474Z,4.42
2018-11-27T11:22:11.656Z,4.44
2018-11-27T11:23:11.835Z,4.59
2018-11-27T11:24:12.015Z,4.62
2018-11-27T11:25:12.201Z,4.67
2018-11-27T11:26:12.387Z,4.48
2018-11-27T11:27:12.569Z,4.78
2018-11-27T11:28:12.754Z,4.89
2018-11-27T11:29:12.932Z,4.99
2018-11-27T11:30:13.127Z,5.07
2018-11-27T11:31:13.313Z,5.07
2018-11-27T11:32:13.497Z,4.63
2018-11-27T11:33:13.685Z,4.78
2018-11-27T11:34:13.865Z,4.77
2018-11-27T11:35:14.064Z,4.82
2018-11-27T11:36:14.258Z,4.63
2018-11-27T11:37:14.449Z,4.51
2018-11-27T11:38:14.627Z,4.33
2018-11-27T11:39:14.813Z,4.54
2018-11-27T11:40:14.990Z,4.42
2018-11-27T11:41:15.183Z,4.32
2018-11-27T11:42:15.361Z,4.15
2018-11-27T11:43:15.545Z,4.16
2018-11-27T11:44:15.722Z,4.24
2018-11-27T11:45:15.914Z,4.23
2018-11-27T11:46:16.098Z,4.33
2018-11-27T11:47:16.281Z,4.34
2018-11-27T11:48:16.463Z,4.29
2018-11-27T11:49:16.650Z,4.24
2018-11-27T11:50:16.830Z,4.20
2018-11-27T11:51:17.010Z,4.05
2018-11-27T11:52:17.192Z,4.00
2018-11-27T11:53:17.372Z,4.29
2018-11-27T11:54:17.564Z,4.33
2018-11-27T11:55:17.746Z,4.27
2018-11-27T11:56:17.926Z,4.30
2018-11-27T11:57:18.108Z,4.40
2018-11-27T11:58:18.292Z,4.37
2018-11-27T11:59:18.472Z,4.37
2018-11-27T12:00:18.653Z,4.22
2018-11-27T12:01:18.841Z,4.36
2018-11-27T12:02:19.022Z,4.33
2018-11-27T12:03:19.209Z,4.23
2018-11-27T12:04:19.401Z,4.26
2018-11-27T12:05:24.914Z,4.27
2018-11-27T12:06:19.762Z,4.30
2018-11-27T12:07:19.944Z,4.26
2018-11-27T12:08:20.124Z,4.16
2018-11-27T12:09:20.307Z,4.34
2018-11-27T12:10:20.484Z,4.44
2018-11-27T12:11:20.670Z,4.30
2018-11-27T12:12:20.860Z,4.58
2018-11-27T12:13:21.035Z,4.47
2018-11-27T12:14:21.218Z,4.65
2018-11-27T12:15:21.402Z,4.58
2018-11-27T12:16:21.585Z,4.52
2018-11-27T12:17:21.774Z,4.50
2018-11-27T12:18:21.956Z,4.60
2018-11-27T12:19:22.146Z,4.73
2018-11-27T12:20:22.326Z,4.50
2018-11-27T12:21:22.507Z,4.65
2018-11-27T12:22:22.691Z,4.55
2018-11-27T12:23:22.871Z,4.33
2018-11-27T12:24:23.064Z,4.32
2018-11-27T12:25:24.399Z,4.33
2018-11-27T12:26:23.443Z,4.33
2018-11-27T12:27:23.625Z,4.15
2018-11-27T12:28:23.840Z,4.12
2018-11-27T12:29:24.035Z,4.09
2018-11-27T12:30:24.218Z,4.22
2018-11-27T12:31:24.394Z,4.14
2018-11-27T12:32:24.575Z,4.20
2018-11-27T12:33:24.750Z,4.15
2018-11-27T12:34:24.941Z,4.12
2018-11-27T12:35:25.138Z,3.96
2018-11-27T12:36:25.325Z,3.88
2018-11-27T12:37:25.507Z,3.90
2018-11-27T12:38:25.696Z,3.87
2018-11-27T12:39:25.909Z,3.86
2018-11-27T12:40:26.073Z,3.93
2018-11-27T12:41:26.265Z,3.90
2018-11-27T12:42:26.448Z,3.87
2018-11-27T12:43:26.633Z,3.88
2018-11-27T12:44:26.819Z,3.88
2018-11-27T12:45:26.997Z,3.97
2018-11-27T12:46:27.179Z,3.98
2018-11-27T12:47:27.350Z,4.14
2018-11-27T12:48:27.541Z,4.08
2018-11-27T12:49:27.723Z,3.98
2018-11-27T12:50:27.900Z,3.93
2018-11-27T12:51:28.091Z,3.91
2018-11-27T12:52:28.275Z,3.98
2018-11-27T12:53:28.448Z,3.88
2018-11-27T12:54:28.644Z,3.88
2018-11-27T12:55:28.810Z,3.96
2018-11-27T12:56:28.992Z,3.96
2018-11-27T12:57:29.175Z,3.97
2018-11-27T12:58:29.351Z,3.90
2018-11-27T12:59:29.541Z,3.75
2018-11-27T13:00:29.722Z,3.84
2018-11-27T13:01:29.905Z,3.94
2018-11-27T13:02:30.084Z,4.02
2018-11-27T13:03:30.264Z,3.90
2018-11-27T13:04:30.451Z,3.96
2018-11-27T13:05:30.634Z,3.93
2018-11-27T13:06:30.809Z,3.84
2018-11-27T13:07:30.987Z,3.93
2018-11-27T13:08:31.160Z,3.86
2018-11-27T13:09:31.357Z,3.84
2018-11-27T13:10:31.544Z,3.78
2018-11-27T13:11:31.730Z,3.86
2018-11-27T13:12:31.910Z,3.72
2018-11-27T13:13:32.096Z,3.86
2018-11-27T13:14:32.271Z,3.91
2018-11-27T13:15:32.454Z,3.88
2018-11-27T13:16:32.632Z,3.94
2018-11-27T13:17:32.819Z,3.93
2018-11-27T13:18:33.014Z,3.94
2018-11-27T13:19:33.198Z,3.88
2018-11-27T13:20:33.380Z,3.94